createdAt,value
2019-02-12T00:00:39.063Z,3.15
2019-02-12T00:01:39.295Z,3.26
2019-02-12T00:03:43.455Z,3.21
2019-02-12T00:04:43.690Z,3.21
2019-02-12T00:06:47.831Z,3.24
2019-02-12T00:07:48.063Z,3.31
2019-02-12T00:09:52.220Z,3.17
2019-02-12T00:10:52.462Z,3.26
2019-02-12T00:12:56.618Z,3.24
2019-02-12T00:13:56.851Z,3.23
2019-02-12T00:16:00.990Z,3.33
2019-02-12T00:17:01.221Z,3.31
2019-02-12T00:19:05.384Z,3.28
2019-02-12T00:20:05.617Z,3.29
2019-02-12T00:22:09.755Z,3.26
2019-02-12T00:23:09.989Z,3.32
2019-02-12T00:25:14.150Z,3.40
2019-02-12T00:26:14.385Z,3.28
2019-02-12T00:28:18.525Z,3.33
2019-02-12T00:29:18.756Z,3.32
2019-02-12T00:31:22.921Z,3.35
2019-02-12T00:32:23.154Z,3.31
2019-02-12T00:34:27.323Z,3.35
2019-02-12T00:35:27.548Z,3.32
2019-02-12T00:37:20.623Z,3.32
2019-02-12T00:38:20.855Z,3.36
2019-02-12T00:40:25.013Z,3.39
2019-02-12T00:41:25.246Z,3.28
2019-02-12T00:43:29.383Z,3.32
2019-02-12T00:44:29.618Z,3.29
2019-02-12T00:46:33.777Z,3.17
2019-02-12T00:47:34.009Z,3.24
2019-02-12T00:49:38.168Z,3.13
2019-02-12T00:50:38.402Z,3.17
2019-02-12T00:52:42.539Z,3.15
2019-02-12T00:53:42.772Z,3.10
2019-02-12T00:55:46.936Z,3.13
2019-02-12T00:56:47.169Z,3.14
2019-02-12T00:58:51.328Z,3.06
2019-02-12T00:59:51.559Z,3.00
2019-02-12T01:01:55.705Z,3.05
2019-02-12T01:02:55.937Z,3.02
2019-02-12T01:05:00.153Z,3.10
2019-02-12T01:06:00.333Z,3.02
2019-02-12T01:08:04.467Z,3.02
2019-02-12T01:09:04.705Z,3.10
2019-02-12T01:11:08.856Z,3.05
2019-02-12T01:12:09.096Z,3.03
2019-02-12T01:14:13.249Z,3.08
2019-02-12T01:15:13.482Z,3.08
2019-02-12T01:17:06.550Z,3.05
2019-02-12T01:18:06.784Z,3.02
2019-02-12T01:20:10.944Z,3.08
2019-02-12T01:21:11.177Z,2.92
2019-02-12T01:23:15.315Z,3.03
2019-02-12T01:24:15.548Z,3.06
2019-02-12T01:26:19.706Z,3.10
2019-02-12T01:27:19.940Z,3.05
2019-02-12T01:29:24.084Z,3.06
2019-02-12T01:30:24.315Z,3.06
2019-02-12T01:32:28.475Z,3.00
2019-02-12T01:33:28.706Z,3.06
2019-02-12T01:35:32.868Z,3.00
2019-02-12T01:36:33.100Z,3.02
2019-02-12T01:38:37.240Z,3.08
2019-02-12T01:39:37.472Z,3.03
2019-02-12T01:41:41.631Z,2.97
2019-02-12T01:42:41.867Z,2.89
2019-02-12T01:44:46.003Z,3.00
2019-02-12T01:45:46.239Z,3.03
2019-02-12T01:47:39.327Z,3.03
2019-02-12T01:48:39.563Z,3.08
2019-02-12T01:50:43.715Z,3.00
2019-02-12T01:51:43.949Z,2.90
2019-02-12T01:53:48.095Z,3.00
2019-02-12T01:54:48.327Z,3.13
2019-02-12T01:56:52.487Z,3.02
2019-02-12T01:57:52.720Z,3.03
2019-02-12T01:59:56.859Z,2.99
2019-02-12T02:00:57.091Z,3.05
2019-02-12T02:03:01.254Z,3.05
2019-02-12T02:04:01.481Z,3.03
2019-02-12T02:06:05.643Z,3.13
2019-02-12T02:07:05.876Z,3.14
2019-02-12T02:09:10.020Z,3.05
2019-02-12T02:10:10.248Z,3.02
2019-02-12T02:12:14.410Z,2.99
2019-02-12T02:13:14.645Z,2.99
2019-02-12T02:15:18.783Z,3.06
2019-02-12T02:16:19.017Z,3.11
2019-02-12T02:18:23.182Z,2.96
2019-02-12T02:19:23.415Z,2.90
2019-02-12T02:21:27.573Z,3.02
2019-02-12T02:22:27.806Z,3.02
2019-02-12T02:24:31.944Z,2.89
2019-02-12T02:25:32.180Z,2.82
2019-02-12T02:27:25.264Z,2.92
2019-02-12T02:28:25.499Z,2.93
2019-02-12T02:30:29.637Z,2.89
2019-02-12T02:31:29.870Z,2.84
2019-02-12T02:33:34.031Z,2.93
2019-02-12T02:34:34.267Z,2.90
2019-02-12T02:36:38.430Z,2.92
2019-02-12T02:37:38.686Z,2.87
2019-02-12T02:39:42.832Z,2.84
2019-02-12T02:40:43.039Z,2.81
2019-02-12T02:42:47.195Z,2.84
2019-02-12T02:43:47.425Z,2.89
2019-02-12T02:45:51.562Z,2.90
2019-02-12T02:46:51.797Z,2.90
2019-02-12T02:48:55.954Z,2.92
2019-02-12T02:49:56.193Z,2.79
2019-02-12T02:52:00.359Z,2.84
2019-02-12T02:53:00.578Z,2.93
2019-02-12T02:55:04.713Z,2.81
2019-02-12T02:56:04.950Z,2.87
2019-02-12T02:58:09.112Z,2.90
2019-02-12T02:59:09.345Z,2.85
2019-02-12T03:01:13.487Z,2.81
2019-02-12T03:02:13.722Z,2.87
2019-02-12T03:04:17.881Z,2.75
2019-02-12T03:05:18.113Z,2.84
2019-02-12T03:07:11.196Z,2.81
2019-02-12T03:08:11.430Z,2.79
2019-02-12T03:10:15.568Z,2.77
2019-02-12T03:11:15.800Z,2.89
2019-02-12T03:13:19.962Z,2.84
2019-02-12T03:14:20.195Z,2.75
2019-02-12T03:16:24.336Z,2.79
2019-02-12T03:17:24.572Z,2.77
2019-02-12T03:19:28.727Z,2.77
2019-02-12T03:20:28.960Z,2.75
2019-02-12T03:22:33.124Z,2.71
2019-02-12T03:23:33.356Z,2.77
2019-02-12T03:25:37.493Z,2.69
2019-02-12T03:26:37.731Z,2.78
2019-02-12T03:28:41.885Z,2.71
2019-02-12T03:29:42.116Z,2.67
2019-02-12T03:31:46.256Z,2.74
2019-02-12T03:32:46.488Z,2.60
2019-02-12T03:34:50.647Z,2.74
2019-02-12T03:35:50.883Z,2.72
2019-02-12T03:37:43.969Z,2.79
2019-02-12T03:38:44.203Z,2.69
2019-02-12T03:40:48.341Z,2.74
2019-02-12T03:41:48.570Z,2.69
2019-02-12T03:43:52.735Z,2.75
2019-02-12T03:44:52.976Z,2.64
2019-02-12T03:46:57.104Z,2.77
2019-02-12T03:47:57.340Z,2.77
2019-02-12T03:50:01.495Z,2.78
2019-02-12T03:51:01.732Z,2.79
2019-02-12T03:53:05.863Z,2.81
2019-02-12T03:54:06.096Z,2.75
2019-02-12T03:56:10.255Z,2.71
2019-02-12T03:57:10.492Z,2.77
2019-02-12T03:59:14.648Z,2.75
2019-02-12T04:00:14.879Z,2.69
2019-02-12T04:02:19.017Z,2.74
2019-02-12T04:03:19.248Z,2.74
2019-02-12T04:05:23.410Z,2.78
2019-02-12T04:06:23.639Z,2.77
2019-02-12T04:08:27.777Z,2.78
2019-02-12T04:09:28.008Z,2.71
2019-02-12T04:11:32.171Z,2.74
2019-02-12T04:12:32.397Z,2.71
2019-02-12T04:14:36.555Z,2.67
2019-02-12T04:15:36.787Z,2.72
2019-02-12T04:17:29.853Z,2.72
2019-02-12T04:18:30.086Z,2.71
2019-02-12T04:20:34.242Z,2.71
2019-02-12T04:21:34.473Z,2.59
2019-02-12T04:23:38.647Z,2.60
2019-02-12T04:24:38.867Z,2.61
2019-02-12T04:26:43.012Z,2.67
2019-02-12T04:27:43.330Z,2.64
2019-02-12T04:29:47.399Z,2.63
2019-02-12T04:30:47.631Z,2.57
2019-02-12T04:32:51.771Z,2.52
2019-02-12T04:33:52.002Z,2.48
2019-02-12T04:35:56.158Z,2.43
2019-02-12T04:36:56.389Z,2.45
2019-02-12T04:39:00.551Z,2.46
2019-02-12T04:40:00.788Z,2.43
2019-02-12T04:42:04.921Z,2.43
2019-02-12T04:43:05.160Z,2.34
2019-02-12T04:45:09.318Z,2.36
2019-02-12T04:46:09.547Z,2.35
2019-02-12T04:48:13.684Z,2.35
2019-02-12T04:49:13.916Z,2.38
2019-02-12T04:51:18.079Z,2.31
2019-02-12T04:52:18.312Z,2.30
2019-02-12T04:54:22.481Z,2.31
2019-02-12T04:55:22.707Z,2.31
2019-02-12T04:57:15.783Z,2.35
2019-02-12T04:58:16.037Z,2.27
2019-02-12T05:00:21.193Z,2.34
2019-02-12T05:01:21.428Z,2.35
2019-02-12T05:03:25.566Z,2.34
2019-02-12T05:04:25.800Z,2.30
2019-02-12T05:06:30.005Z,2.39
2019-02-12T05:07:30.200Z,2.27
2019-02-12T05:09:34.355Z,2.34
2019-02-12T05:10:34.612Z,2.31
2019-02-12T05:12:38.729Z,2.21
2019-02-12T05:13:38.965Z,2.25
2019-02-12T05:15:43.127Z,2.31
2019-02-12T05:16:43.364Z,2.30
2019-02-12T05:18:47.519Z,2.27
2019-02-12T05:19:47.751Z,2.27
2019-02-12T05:21:51.909Z,2.31
2019-02-12T05:22:52.142Z,2.35
2019-02-12T05:24:56.297Z,2.24
2019-02-12T05:25:56.527Z,2.31
2019-02-12T05:28:00.663Z,2.39
2019-02-12T05:29:00.893Z,2.30
2019-02-12T05:31:05.060Z,2.38
2019-02-12T05:32:05.283Z,2.35
2019-02-12T05:34:09.438Z,2.31
2019-02-12T05:35:09.671Z,2.38
2019-02-12T05:37:02.737Z,2.43
2019-02-12T05:38:02.972Z,2.39
2019-02-12T05:40:07.125Z,2.38
2019-02-12T05:41:07.356Z,2.30
2019-02-12T05:43:11.499Z,2.42
2019-02-12T05:44:11.728Z,2.45
2019-02-12T05:46:15.885Z,2.48
2019-02-12T05:47:16.122Z,2.42
2019-02-12T05:49:20.273Z,2.48
2019-02-12T05:50:20.515Z,2.48
2019-02-12T05:52:24.640Z,2.46
2019-02-12T05:53:24.872Z,2.38
2019-02-12T05:55:29.043Z,2.36
2019-02-12T05:56:29.252Z,2.38
2019-02-12T05:58:33.405Z,2.28
2019-02-12T05:59:33.635Z,2.28
2019-02-12T06:01:37.791Z,2.35
2019-02-12T06:02:38.026Z,2.34
2019-02-12T06:04:42.182Z,2.30
2019-02-12T06:05:42.414Z,2.38
2019-02-12T06:07:35.479Z,2.36
2019-02-12T06:08:35.716Z,2.39
2019-02-12T06:10:39.869Z,2.34
2019-02-12T06:11:40.100Z,2.39
2019-02-12T06:13:44.238Z,2.43
2019-02-12T06:14:44.473Z,2.35
2019-02-12T06:16:48.630Z,2.39
2019-02-12T06:17:48.861Z,2.38
2019-02-12T06:19:53.030Z,2.36
2019-02-12T06:20:53.263Z,2.42
2019-02-12T06:23:03.356Z,2.41
2019-02-12T06:23:57.631Z,2.45
2019-02-12T06:26:01.791Z,2.45
2019-02-12T06:27:02.023Z,2.46
2019-02-12T06:29:06.178Z,2.53
2019-02-12T06:30:06.412Z,2.57
2019-02-12T06:32:10.553Z,2.63
2019-02-12T06:33:10.786Z,2.60
2019-02-12T06:35:14.945Z,2.72
2019-02-12T06:36:15.180Z,2.63
2019-02-12T06:38:19.316Z,2.59
2019-02-12T06:39:19.548Z,2.57
2019-02-12T06:41:23.705Z,2.60
2019-02-12T06:42:23.935Z,2.64
2019-02-12T06:44:28.093Z,2.54
2019-02-12T06:45:28.327Z,2.61
2019-02-12T06:47:21.392Z,2.60
2019-02-12T06:48:21.621Z,2.57
2019-02-12T06:50:25.791Z,2.59
2019-02-12T06:51:26.013Z,2.56
2019-02-12T06:53:30.152Z,2.59
2019-02-12T06:54:30.385Z,2.56
2019-02-12T06:56:34.543Z,2.61
2019-02-12T06:57:34.778Z,2.57
2019-02-12T06:59:38.941Z,2.57
2019-02-12T07:00:39.175Z,2.59
2019-02-12T07:02:43.314Z,2.69
2019-02-12T07:03:43.545Z,2.59
2019-02-12T07:05:47.702Z,2.60
2019-02-12T07:06:47.937Z,2.67
2019-02-12T07:08:52.073Z,2.69
2019-02-12T07:09:52.306Z,2.72
2019-02-12T07:11:56.463Z,2.74
2019-02-12T07:12:56.697Z,2.71
2019-02-12T07:15:00.852Z,2.59
2019-02-12T07:16:01.083Z,2.67
2019-02-12T07:18:05.219Z,2.56
2019-02-12T07:19:05.449Z,2.59
2019-02-12T07:21:09.614Z,2.72
2019-02-12T07:22:09.846Z,2.72
2019-02-12T07:24:13.995Z,2.72
2019-02-12T07:25:14.228Z,2.69
2019-02-12T07:27:07.315Z,2.64
2019-02-12T07:28:07.548Z,2.71
2019-02-12T07:30:11.681Z,2.71
2019-02-12T07:31:11.917Z,2.72
2019-02-12T07:33:16.076Z,2.57
2019-02-12T07:34:16.322Z,2.59
2019-02-12T07:36:20.468Z,2.56
2019-02-12T07:37:20.706Z,2.52
2019-02-12T07:39:25.856Z,2.52
2019-02-12T07:40:26.086Z,2.48
2019-02-12T07:42:30.248Z,2.46
2019-02-12T07:43:30.473Z,2.49
2019-02-12T07:45:34.636Z,2.45
2019-02-12T07:46:34.868Z,2.49
2019-02-12T07:48:39.006Z,2.54
2019-02-12T07:49:39.239Z,2.45
2019-02-12T07:51:43.401Z,2.49
2019-02-12T07:52:43.630Z,2.48
2019-02-12T07:54:47.767Z,2.61
2019-02-12T07:55:48.000Z,2.66
2019-02-12T07:57:41.110Z,2.67
2019-02-12T07:58:41.348Z,2.71
2019-02-12T08:00:45.500Z,2.63
2019-02-12T08:01:45.732Z,2.69
2019-02-12T08:03:49.871Z,2.69
2019-02-12T08:04:50.104Z,2.64
2019-02-12T08:06:54.264Z,2.75
2019-02-12T08:07:54.497Z,2.74
2019-02-12T08:09:58.639Z,2.77
2019-02-12T08:10:58.871Z,2.75
2019-02-12T08:13:03.032Z,2.72
2019-02-12T08:14:03.264Z,2.87
2019-02-12T08:16:08.295Z,2.87
2019-02-12T08:17:07.657Z,2.81
2019-02-12T08:19:11.793Z,2.84
2019-02-12T08:20:12.022Z,2.89
2019-02-12T08:22:16.202Z,2.90
2019-02-12T08:23:16.425Z,2.92
2019-02-12T08:25:20.569Z,2.92
2019-02-12T08:26:20.801Z,2.81
2019-02-12T08:28:24.962Z,2.81
2019-02-12T08:29:25.195Z,2.85
2019-02-12T08:31:29.358Z,2.89
2019-02-12T08:32:29.867Z,2.92
2019-02-12T08:34:33.766Z,2.92
2019-02-12T08:35:33.996Z,2.84
2019-02-12T08:37:27.086Z,2.87
2019-02-12T08:38:27.323Z,2.96
2019-02-12T08:40:31.457Z,2.90
2019-02-12T08:41:31.693Z,2.92
2019-02-12T08:43:35.848Z,3.05
2019-02-12T08:44:36.079Z,2.93
2019-02-12T08:46:40.240Z,3.08
2019-02-12T08:47:40.478Z,3.00
2019-02-12T08:49:44.613Z,3.02
2019-02-12T08:50:44.847Z,3.11
2019-02-12T08:52:49.009Z,3.10
2019-02-12T08:53:50.767Z,3.14
2019-02-12T08:55:53.390Z,3.28
2019-02-12T08:56:53.614Z,3.35
2019-02-12T08:58:57.774Z,3.70
2019-02-12T08:59:58.006Z,3.73
2019-02-12T09:02:02.171Z,3.91
2019-02-12T09:03:02.401Z,3.90
2019-02-12T09:05:06.540Z,3.87
2019-02-12T09:06:06.775Z,3.83
2019-02-12T09:08:10.936Z,3.78
2019-02-12T09:09:11.175Z,3.78
2019-02-12T09:11:15.312Z,3.69
2019-02-12T09:12:15.547Z,3.65
2019-02-12T09:14:19.711Z,3.65
2019-02-12T09:15:19.944Z,3.66
2019-02-12T09:17:13.043Z,3.61
2019-02-12T09:18:13.265Z,3.62
2019-02-12T09:20:17.415Z,3.66
2019-02-12T09:21:17.648Z,3.72
2019-02-12T09:23:21.810Z,3.76
2019-02-12T09:24:22.045Z,3.78
2019-02-12T09:26:26.189Z,3.58
2019-02-12T09:27:26.422Z,3.62
2019-02-12T09:29:30.594Z,3.62
2019-02-12T09:30:30.820Z,3.65
2019-02-12T09:32:34.983Z,3.62
2019-02-12T09:33:35.217Z,3.80
2019-02-12T09:35:39.364Z,3.93
2019-02-12T09:36:39.598Z,3.90
2019-02-12T09:38:43.763Z,3.84
2019-02-12T09:39:43.991Z,3.79
2019-02-12T09:41:48.133Z,3.76
2019-02-12T09:42:48.369Z,3.65
2019-02-12T09:44:52.541Z,3.66
2019-02-12T09:45:52.767Z,3.60
2019-02-12T09:47:56.931Z,3.60
2019-02-12T09:48:57.163Z,3.50
2019-02-12T09:51:01.311Z,3.66
2019-02-12T09:52:01.547Z,3.75
2019-02-12T09:54:08.764Z,3.78
2019-02-12T09:55:05.950Z,3.75
2019-02-12T09:56:59.025Z,3.52
2019-02-12T09:57:59.260Z,3.51
2019-02-12T10:00:03.429Z,3.52
2019-02-12T10:01:03.662Z,3.65
2019-02-12T10:03:07.828Z,3.68
2019-02-12T10:04:08.062Z,3.62
2019-02-12T10:06:21.298Z,3.65
2019-02-12T10:07:12.440Z,3.55
2019-02-12T10:09:16.616Z,3.48
2019-02-12T10:10:16.846Z,3.54
2019-02-12T10:12:20.992Z,3.61
2019-02-12T10:13:21.224Z,3.68
2019-02-12T10:15:25.394Z,3.66
2019-02-12T10:16:25.625Z,3.78
2019-02-12T10:18:29.792Z,4.02
2019-02-12T10:19:30.028Z,4.14
2019-02-12T10:21:34.170Z,4.04
2019-02-12T10:22:34.404Z,4.02
2019-02-12T10:24:38.565Z,4.26
2019-02-12T10:25:38.802Z,4.44
2019-02-12T10:27:31.873Z,4.41
2019-02-12T10:28:32.106Z,4.48
2019-02-12T10:30:36.276Z,4.62
2019-02-12T10:31:36.513Z,4.62
2019-02-12T10:33:40.676Z,4.84
2019-02-12T10:34:40.908Z,4.86
2019-02-12T10:36:45.057Z,4.94
2019-02-12T10:37:45.294Z,5.03
2019-02-12T10:39:49.462Z,4.94
2019-02-12T10:40:49.694Z,4.92
2019-02-12T10:42:53.841Z,5.06
2019-02-12T10:43:54.079Z,5.07
2019-02-12T10:45:58.245Z,5.17
2019-02-12T10:46:58.479Z,5.10
2019-02-12T10:49:02.648Z,5.22
2019-02-12T10:50:02.882Z,5.17
2019-02-12T10:52:07.033Z,5.02
2019-02-12T10:53:08.954Z,5.10
2019-02-12T10:55:11.437Z,5.06
2019-02-12T10:56:11.672Z,4.96
2019-02-12T10:58:15.828Z,4.88
2019-02-12T10:59:16.062Z,4.84
2019-02-12T11:01:20.232Z,4.69
2019-02-12T11:02:20.470Z,4.65
2019-02-12T11:04:24.636Z,4.44
2019-02-12T11:05:24.870Z,4.47
2019-02-12T11:07:17.943Z,4.51
2019-02-12T11:08:18.181Z,4.60
2019-02-12T11:10:22.349Z,4.66
2019-02-12T11:11:22.587Z,4.63
2019-02-12T11:13:26.730Z,4.70
2019-02-12T11:14:26.967Z,4.72
2019-02-12T11:16:31.145Z,4.70
2019-02-12T11:17:31.380Z,4.80
2019-02-12T11:19:35.550Z,4.82
2019-02-12T11:20:35.785Z,4.84
2019-02-12T11:22:39.931Z,4.91
2019-02-12T11:23:40.166Z,4.84
2019-02-12T11:25:44.330Z,4.62
2019-02-12T11:26:44.566Z,4.80
2019-02-12T11:28:48.709Z,4.82
2019-02-12T11:29:48.942Z,4.85
2019-02-12T11:31:53.110Z,4.88
2019-02-12T11:32:53.347Z,4.91
2019-02-12T11:34:57.515Z,4.84
2019-02-12T11:35:57.752Z,4.91
2019-02-12T11:38:01.896Z,4.78
2019-02-12T11:39:02.131Z,4.73
2019-02-12T11:41:06.297Z,4.67
2019-02-12T11:42:06.533Z,4.69
2019-02-12T11:44:10.680Z,4.67
2019-02-12T11:45:10.915Z,4.75
2019-02-12T11:47:04.007Z,4.70
2019-02-12T11:48:04.240Z,4.75
2019-02-12T11:50:08.410Z,4.84
2019-02-12T11:51:08.646Z,4.84
2019-02-12T11:53:12.794Z,4.88
2019-02-12T11:54:13.030Z,4.92
2019-02-12T11:56:17.196Z,5.00
2019-02-12T11:57:17.432Z,5.02
2019-02-12T11:59:21.584Z,5.04
2019-02-12T12:00:21.816Z,4.97
2019-02-12T12:02:26.001Z,4.84
2019-02-12T12:03:26.224Z,4.92
2019-02-12T12:05:30.393Z,4.82
2019-02-12T12:06:30.628Z,4.80
2019-02-12T12:08:34.771Z,4.88
2019-02-12T12:09:35.004Z,4.88
2019-02-12T12:11:39.173Z,4.85
2019-02-12T12:12:39.408Z,4.84
2019-02-12T12:14:43.553Z,4.75
2019-02-12T12:15:43.790Z,4.69
2019-02-12T12:17:37.895Z,4.67
2019-02-12T12:18:38.130Z,4.77
2019-02-12T12:20:42.303Z,4.77
2019-02-12T12:21:42.536Z,4.69
2019-02-12T12:23:46.687Z,4.77
2019-02-12T12:24:51.621Z,4.60
2019-02-12T12:26:51.084Z,4.62
2019-02-12T12:27:51.323Z,4.65
2019-02-12T12:29:55.474Z,4.59
2019-02-12T12:30:55.708Z,4.55
2019-02-12T12:32:59.876Z,4.59
2019-02-12T12:34:00.109Z,4.63
2019-02-12T12:36:04.279Z,4.62
2019-02-12T12:37:04.515Z,4.62
2019-02-12T12:39:08.662Z,4.73
2019-02-12T12:40:08.895Z,4.67
2019-02-12T12:42:13.060Z,4.69
2019-02-12T12:43:13.299Z,4.69
2019-02-12T12:45:17.440Z,4.78
2019-02-12T12:46:17.678Z,4.82
2019-02-12T12:48:21.845Z,4.88
2019-02-12T12:49:22.079Z,4.70
2019-02-12T12:51:26.254Z,4.85
2019-02-12T12:52:26.488Z,4.84
2019-02-12T12:54:30.651Z,4.88
2019-02-12T12:55:30.868Z,4.97
2019-02-12T12:57:23.963Z,4.92
2019-02-12T12:58:24.196Z,4.92
2019-02-12T13:00:28.342Z,4.96
2019-02-12T13:01:28.580Z,4.91
2019-02-12T13:03:32.744Z,4.97
2019-02-12T13:04:32.979Z,5.04
2019-02-12T13:06:37.151Z,5.13
2019-02-12T13:07:37.387Z,5.17
2019-02-12T13:09:41.536Z,5.20
2019-02-12T13:10:41.772Z,5.24
2019-02-12T13:12:45.941Z,5.24
2019-02-12T13:13:47.856Z,5.35
2019-02-12T13:15:50.316Z,5.24
2019-02-12T13:16:50.555Z,5.21
2019-02-12T13:18:54.731Z,5.25
2019-02-12T13:19:54.953Z,5.22
2019-02-12T13:21:59.123Z,5.04
2019-02-12T13:22:59.357Z,5.27
2019-02-12T13:25:08.581Z,5.18
2019-02-12T13:26:03.739Z,5.17
2019-02-12T13:28:07.909Z,5.17
2019-02-12T13:29:08.144Z,5.12
2019-02-12T13:31:12.290Z,5.07
2019-02-12T13:32:12.525Z,5.09
2019-02-12T13:34:16.697Z,5.07
2019-02-12T13:35:16.929Z,5.12
2019-02-12T13:37:10.029Z,5.25
2019-02-12T13:38:10.269Z,5.31
2019-02-12T13:40:14.420Z,5.45
2019-02-12T13:41:14.652Z,5.56
2019-02-12T13:43:18.821Z,5.67
2019-02-12T13:44:19.054Z,5.64
2019-02-12T13:46:23.198Z,5.65
2019-02-12T13:47:23.435Z,5.67
2019-02-12T13:49:27.603Z,5.83
2019-02-12T13:50:27.836Z,5.96
2019-02-12T13:52:31.985Z,6.00
2019-02-12T13:53:32.218Z,6.19
2019-02-12T13:55:36.381Z,6.11
2019-02-12T13:56:36.615Z,6.21
2019-02-12T13:58:40.783Z,6.03
2019-02-12T13:59:41.018Z,6.00
2019-02-12T14:01:45.162Z,6.00
2019-02-12T14:02:45.400Z,6.11
2019-02-12T14:04:49.568Z,6.25
2019-02-12T14:05:49.804Z,6.01
2019-02-12T14:07:42.882Z,5.99
2019-02-12T14:08:43.118Z,6.03
2019-02-12T14:10:47.285Z,5.99
2019-02-12T14:11:47.519Z,5.91
2019-02-12T14:13:51.740Z,5.90
2019-02-12T14:14:52.039Z,5.93
2019-02-12T14:16:56.191Z,5.68
2019-02-12T14:17:56.424Z,5.71
2019-02-12T14:20:00.600Z,5.63
2019-02-12T14:21:00.893Z,5.74
2019-02-12T14:23:05.050Z,5.76
2019-02-12T14:24:05.287Z,5.74
2019-02-12T14:26:09.456Z,5.79
2019-02-12T14:27:09.692Z,5.76
2019-02-12T14:29:13.865Z,5.79
2019-02-12T14:30:14.099Z,5.79
2019-02-12T14:32:18.288Z,5.74
2019-02-12T14:33:18.572Z,5.79
2019-02-12T14:35:22.751Z,5.86
2019-02-12T14:36:23.046Z,5.74
2019-02-12T14:38:27.197Z,5.76
2019-02-12T14:39:27.457Z,5.74
2019-02-12T14:41:31.621Z,5.72
2019-02-12T14:42:31.859Z,5.79
2019-02-12T14:44:36.026Z,5.72
2019-02-12T14:45:36.264Z,5.64
2019-02-12T14:47:29.337Z,5.57
2019-02-12T14:48:29.570Z,5.54
2019-02-12T14:50:33.740Z,5.38
2019-02-12T14:51:34.011Z,5.49
2019-02-12T14:53:38.159Z,5.43
2019-02-12T14:54:38.388Z,5.45
2019-02-12T14:56:42.645Z,5.45
2019-02-12T14:57:42.877Z,5.39
2019-02-12T14:59:47.037Z,5.36
2019-02-12T15:00:47.305Z,5.45
2019-02-12T15:02:51.458Z,5.40
2019-02-12T15:03:51.690Z,5.38
2019-02-12T15:05:55.849Z,5.31
2019-02-12T15:06:56.139Z,5.35
2019-02-12T15:09:00.283Z,5.25
2019-02-12T15:10:00.571Z,5.22
2019-02-12T15:12:04.739Z,5.33
2019-02-12T15:13:04.977Z,5.28
2019-02-12T15:15:09.140Z,5.27
2019-02-12T15:16:09.375Z,5.30
2019-02-12T15:18:13.520Z,5.27
2019-02-12T15:19:13.780Z,5.33
2019-02-12T15:21:17.932Z,5.30
2019-02-12T15:22:18.169Z,5.30
2019-02-12T15:24:22.317Z,5.27
2019-02-12T15:25:22.552Z,5.35
2019-02-12T15:27:15.725Z,5.24
2019-02-12T15:28:16.091Z,5.28
2019-02-12T15:30:20.400Z,5.25
2019-02-12T15:31:20.721Z,5.24
2019-02-12T15:33:24.885Z,5.21
2019-02-12T15:34:25.149Z,5.15
2019-02-12T15:36:30.499Z,5.13
2019-02-12T15:37:30.832Z,5.20
2019-02-12T15:39:35.040Z,5.24
2019-02-12T15:40:35.347Z,5.22
2019-02-12T15:42:39.759Z,5.12
2019-02-12T15:43:39.870Z,5.21
2019-02-12T15:45:43.940Z,5.18
2019-02-12T15:46:44.237Z,5.17
2019-02-12T15:48:48.458Z,5.18
2019-02-12T15:49:48.689Z,5.07
2019-02-12T15:51:53.023Z,5.13
2019-02-12T15:52:53.320Z,5.15
2019-02-12T15:54:57.479Z,5.12
2019-02-12T15:55:57.713Z,5.15
2019-02-12T15:58:03.764Z,5.13
2019-02-12T15:59:03.134Z,5.07
2019-02-12T16:01:06.407Z,5.10
2019-02-12T16:02:06.707Z,5.09
2019-02-12T16:04:10.856Z,5.12
2019-02-12T16:05:12.466Z,5.07
2019-02-12T16:07:04.225Z,5.03
2019-02-12T16:08:05.636Z,5.07
2019-02-12T16:10:09.720Z,5.09
2019-02-12T16:11:09.943Z,5.09
2019-02-12T16:13:14.119Z,5.06
2019-02-12T16:14:14.344Z,5.02
2019-02-12T16:16:18.510Z,5.06
2019-02-12T16:17:18.771Z,5.09
2019-02-12T16:19:22.976Z,5.04
2019-02-12T16:20:23.277Z,4.97
2019-02-12T16:22:27.515Z,4.99
2019-02-12T16:23:27.846Z,4.97
2019-02-12T16:25:33.200Z,4.97
2019-02-12T16:26:33.208Z,4.96
2019-02-12T16:28:38.443Z,4.91
2019-02-12T16:29:37.753Z,4.97
2019-02-12T16:31:41.971Z,4.94
2019-02-12T16:32:42.204Z,5.03
2019-02-12T16:34:46.469Z,4.88
2019-02-12T16:35:46.790Z,4.86
2019-02-12T16:37:39.933Z,4.78
2019-02-12T16:38:40.162Z,4.82
2019-02-12T16:40:44.353Z,4.77
2019-02-12T16:41:44.618Z,4.70
2019-02-12T16:43:48.803Z,4.73
2019-02-12T16:44:49.081Z,4.78
2019-02-12T16:46:53.354Z,4.70
2019-02-12T16:47:53.625Z,4.69
2019-02-12T16:49:59.615Z,4.59
2019-02-12T16:50:58.090Z,4.62
2019-02-12T16:53:02.386Z,4.63
2019-02-12T16:54:02.778Z,4.69
2019-02-12T16:56:08.511Z,4.63
2019-02-12T16:57:07.186Z,4.63
2019-02-12T16:59:11.410Z,4.60
2019-02-12T17:00:11.661Z,4.60
2019-02-12T17:02:15.825Z,4.59
2019-02-12T17:03:16.064Z,4.63
2019-02-12T17:05:20.205Z,4.48
2019-02-12T17:06:20.436Z,4.58
2019-02-12T17:08:24.598Z,4.48
2019-02-12T17:09:24.840Z,4.55
2019-02-12T17:11:29.002Z,4.48
2019-02-12T17:12:29.229Z,4.62
2019-02-12T17:14:33.369Z,4.59
2019-02-12T17:15:33.603Z,4.54
2019-02-12T17:17:26.690Z,4.60
2019-02-12T17:18:26.923Z,4.52
2019-02-12T17:20:31.061Z,4.50
2019-02-12T17:21:31.297Z,4.44
2019-02-12T17:23:35.464Z,4.48
2019-02-12T17:24:35.713Z,4.52
2019-02-12T17:26:39.867Z,4.50
2019-02-12T17:27:40.107Z,4.48
2019-02-12T17:29:44.240Z,4.50
2019-02-12T17:30:44.473Z,4.54
2019-02-12T17:32:48.634Z,4.48
2019-02-12T17:33:48.867Z,4.48
2019-02-12T17:35:53.026Z,4.52
2019-02-12T17:36:53.259Z,4.45
2019-02-12T17:38:57.419Z,4.45
2019-02-12T17:39:57.856Z,4.44
2019-02-12T17:42:02.036Z,4.55
2019-02-12T17:43:02.268Z,4.48
2019-02-12T17:45:06.440Z,4.47
2019-02-12T17:46:06.674Z,4.44
2019-02-12T17:48:10.867Z,4.47
2019-02-12T17:49:11.099Z,4.47
2019-02-12T17:51:15.267Z,4.47
2019-02-12T17:52:15.496Z,4.51
2019-02-12T17:54:19.674Z,4.59
2019-02-12T17:55:19.993Z,4.44
2019-02-12T17:57:13.084Z,4.54
2019-02-12T17:58:13.347Z,4.51
2019-02-12T18:00:17.522Z,4.45
2019-02-12T18:01:17.813Z,4.48
2019-02-12T18:03:22.028Z,4.50
2019-02-12T18:04:22.305Z,4.44
2019-02-12T18:06:26.483Z,4.47
2019-02-12T18:07:26.715Z,4.40
2019-02-12T18:09:30.930Z,4.48
2019-02-12T18:10:31.161Z,4.44
2019-02-12T18:12:35.322Z,4.47
2019-02-12T18:13:35.557Z,4.44
2019-02-12T18:15:39.698Z,4.40
2019-02-12T18:16:39.929Z,4.36
2019-02-12T18:18:44.085Z,4.42
2019-02-12T18:19:44.328Z,4.41
2019-02-12T18:21:48.463Z,4.40
2019-02-12T18:22:48.701Z,4.34
2019-02-12T18:24:52.859Z,4.45
2019-02-12T18:25:53.095Z,4.42
2019-02-12T18:27:46.184Z,4.47
2019-02-12T18:28:46.481Z,4.41
2019-02-12T18:30:50.634Z,4.45
2019-02-12T18:31:50.867Z,4.45
2019-02-12T18:33:55.101Z,4.41
2019-02-12T18:34:55.334Z,4.41
2019-02-12T18:36:59.478Z,4.45
2019-02-12T18:37:59.747Z,4.50
2019-02-12T18:40:03.916Z,4.41
2019-02-12T18:41:04.146Z,4.45
2019-02-12T18:43:08.352Z,4.44
2019-02-12T18:44:08.624Z,4.52
2019-02-12T18:46:12.803Z,4.33
2019-02-12T18:47:13.074Z,4.45
2019-02-12T18:49:17.234Z,4.33
2019-02-12T18:50:17.464Z,4.34
2019-02-12T18:52:21.613Z,4.37
2019-02-12T18:53:21.868Z,4.44
2019-02-12T18:55:26.094Z,4.42
2019-02-12T18:56:26.325Z,4.47
2019-02-12T18:58:30.485Z,4.29
2019-02-12T18:59:30.770Z,4.24
2019-02-12T19:01:34.931Z,4.36
2019-02-12T19:02:35.164Z,4.33
2019-02-12T19:04:39.385Z,4.42
2019-02-12T19:05:39.619Z,4.36
2019-02-12T19:07:32.714Z,4.24
2019-02-12T19:08:32.943Z,4.27
2019-02-12T19:10:37.154Z,4.32
2019-02-12T19:11:45.721Z,4.30
2019-02-12T19:13:41.622Z,4.41
2019-02-12T19:14:41.857Z,4.29
2019-02-12T19:16:46.030Z,4.44
2019-02-12T19:17:46.257Z,4.40
2019-02-12T19:19:50.421Z,4.29
2019-02-12T19:20:50.651Z,4.34
2019-02-12T19:22:54.791Z,4.29
2019-02-12T19:23:55.023Z,4.30
2019-02-12T19:25:59.181Z,4.32
2019-02-12T19:26:59.417Z,4.29
2019-02-12T19:29:03.582Z,4.26
2019-02-12T19:30:03.818Z,4.24
2019-02-12T19:32:07.956Z,4.27
2019-02-12T19:33:08.195Z,4.22
2019-02-12T19:35:12.369Z,4.18
2019-02-12T19:36:12.605Z,4.23
2019-02-12T19:38:16.752Z,4.23
2019-02-12T19:39:16.991Z,4.15
2019-02-12T19:41:21.152Z,4.24
2019-02-12T19:42:21.387Z,4.14
2019-02-12T19:44:25.550Z,4.22
2019-02-12T19:45:25.785Z,4.15
2019-02-12T19:47:18.854Z,4.14
2019-02-12T19:48:19.088Z,4.16
2019-02-12T19:50:23.252Z,4.16
2019-02-12T19:51:23.669Z,4.22
2019-02-12T19:53:27.601Z,4.22
2019-02-12T19:54:27.843Z,4.14
2019-02-12T19:56:32.043Z,4.23
2019-02-12T19:57:32.286Z,4.16
2019-02-12T19:59:36.500Z,4.24
2019-02-12T20:00:36.773Z,4.16
2019-02-12T20:02:40.919Z,4.11
2019-02-12T20:03:41.179Z,4.16
2019-02-12T20:05:45.371Z,4.11
2019-02-12T20:06:45.601Z,4.04
2019-02-12T20:08:49.743Z,3.96
2019-02-12T20:09:49.985Z,3.91
2019-02-12T20:11:54.144Z,3.88
2019-02-12T20:12:54.381Z,3.87
2019-02-12T20:14:58.538Z,3.78
2019-02-12T20:15:58.761Z,3.80
2019-02-12T20:18:02.895Z,3.65
2019-02-12T20:19:03.132Z,3.62
2019-02-12T20:21:07.316Z,3.69